createdAt,value
2023-02-11T00:00:41.810Z,12.60
2023-02-11T00:03:11.177Z,11.37
2023-02-11T00:05:39.225Z,11.93
2023-02-11T00:08:07.184Z,12.90
2023-02-11T00:10:35.314Z,11.10
2023-02-11T00:13:03.387Z,13.17
2023-02-11T00:15:31.380Z,11.47
2023-02-11T00:17:59.336Z,12.43
2023-02-11T00:20:28.712Z,11.80
2023-02-11T00:22:56.894Z,11.83
2023-02-11T00:25:24.896Z,12.50
2023-02-11T00:27:52.843Z,13.67
2023-02-11T00:30:21.024Z,13.93
2023-02-11T00:32:48.972Z,12.73
2023-02-11T00:35:17.131Z,11.90
2023-02-11T00:37:46.428Z,11.77
2023-02-11T00:40:16.044Z,13.43
2023-02-11T00:42:44.040Z,13.70
2023-02-11T00:45:12.048Z,13.27
2023-02-11T00:47:40.073Z,11.03
2023-02-11T00:50:08.360Z,13.63
2023-02-11T00:52:36.326Z,13.03
2023-02-11T00:55:06.103Z,12.60
2023-02-11T00:57:34.034Z,12.20
2023-02-11T01:00:02.046Z,13.00
2023-02-11T01:02:30.049Z,13.73
2023-02-11T01:04:59.621Z,13.37
2023-02-11T01:07:27.824Z,13.87
2023-02-11T01:09:55.835Z,12.67
2023-02-11T01:12:25.470Z,13.50
2023-02-11T01:14:53.432Z,14.17
2023-02-11T01:17:21.399Z,13.03
2023-02-11T01:19:49.377Z,13.07
2023-02-11T01:22:17.358Z,13.40
2023-02-11T01:24:45.340Z,13.23
2023-02-11T01:27:13.302Z,13.77
2023-02-11T01:29:42.763Z,12.57
2023-02-11T01:32:10.828Z,13.30
2023-02-11T01:34:38.804Z,13.37
2023-02-11T01:37:06.926Z,12.57
2023-02-11T01:39:35.690Z,12.00
2023-02-11T01:42:03.719Z,12.33
2023-02-11T01:44:34.508Z,12.93
2023-02-11T01:47:04.836Z,12.70
2023-02-11T01:49:35.232Z,13.10
2023-02-11T01:52:08.128Z,12.10
2023-02-11T01:54:58.033Z,13.10
2023-02-11T01:57:29.866Z,13.10
2023-02-11T02:00:06.660Z,11.70
2023-02-11T02:02:42.871Z,12.30
2023-02-11T02:05:20.500Z,12.03
2023-02-11T02:07:57.213Z,13.03
2023-02-11T02:10:28.528Z,13.23
2023-02-11T02:12:56.936Z,13.00
2023-02-11T02:15:28.751Z,13.90
2023-02-11T02:18:23.933Z,13.63
2023-02-11T02:21:35.798Z,12.97
2023-02-11T02:24:32.701Z,12.70
2023-02-11T02:27:24.999Z,12.83
2023-02-11T02:30:27.903Z,13.10
2023-02-11T02:33:34.573Z,12.90
2023-02-11T02:36:13.739Z,11.93
2023-02-11T02:38:49.639Z,12.57
2023-02-11T02:41:21.197Z,11.83
2023-02-11T02:43:51.394Z,13.17
2023-02-11T02:46:21.802Z,11.53
2023-02-11T02:48:51.008Z,12.00
2023-02-11T02:51:37.773Z,12.33
2023-02-11T02:54:35.866Z,11.70
2023-02-11T02:57:16.201Z,12.43
2023-02-11T03:00:00.701Z,11.77
2023-02-11T03:02:33.075Z,12.50
2023-02-11T03:05:07.736Z,10.60
2023-02-11T03:07:42.803Z,12.43
2023-02-11T03:10:15.273Z,11.50
2023-02-11T03:12:44.901Z,11.43
2023-02-11T03:15:14.715Z,11.27
2023-02-11T03:17:46.078Z,12.43
2023-02-11T03:20:18.153Z,12.20
2023-02-11T03:22:51.758Z,11.63
2023-02-11T03:25:20.449Z,12.70
2023-02-11T03:27:53.120Z,11.27
2023-02-11T03:30:26.130Z,11.30
2023-02-11T03:33:00.462Z,12.80
2023-02-11T03:35:33.759Z,12.53
2023-02-11T03:38:08.522Z,12.57
2023-02-11T03:40:38.991Z,11.27
2023-02-11T03:43:10.627Z,11.60
2023-02-11T03:45:40.212Z,11.60
2023-02-11T03:48:15.673Z,10.50
2023-02-11T03:50:46.697Z,11.47
2023-02-11T03:53:16.986Z,11.07
2023-02-11T03:55:46.844Z,11.80
2023-02-11T03:58:14.924Z,11.57
2023-02-11T04:00:44.522Z,12.10
2023-02-11T04:03:13.737Z,11.57
2023-02-11T04:05:42.037Z,11.93
2023-02-11T04:08:10.596Z,10.60
2023-02-11T04:10:40.001Z,11.23
2023-02-11T04:13:08.023Z,12.00
2023-02-11T04:15:35.992Z,11.47
2023-02-11T04:18:04.351Z,11.53
2023-02-11T04:20:32.534Z,11.90
2023-02-11T04:23:00.500Z,11.70
2023-02-11T04:25:28.507Z,12.20
2023-02-11T04:27:57.825Z,11.90
2023-02-11T04:30:25.924Z,12.10
2023-02-11T04:32:54.934Z,12.40
2023-02-11T04:35:23.003Z,11.30
2023-02-11T04:37:50.995Z,11.63
2023-02-11T04:40:19.282Z,11.20
2023-02-11T04:42:47.224Z,11.87
2023-02-11T04:45:16.734Z,11.13
2023-02-11T04:47:44.704Z,10.90
2023-02-11T04:50:12.680Z,12.10
2023-02-11T04:52:40.856Z,11.20
2023-02-11T04:55:09.224Z,11.57
2023-02-11T04:57:37.232Z,11.63
2023-02-11T05:00:06.136Z,10.17
2023-02-11T05:02:35.485Z,10.77
2023-02-11T05:05:04.098Z,10.90
2023-02-11T05:07:32.200Z,11.60
2023-02-11T05:10:00.197Z,11.67
2023-02-11T05:12:28.148Z,12.23
2023-02-11T05:14:56.104Z,11.00
2023-02-11T05:17:24.319Z,10.93
2023-02-11T05:19:53.596Z,11.37
2023-02-11T05:22:22.121Z,10.87
2023-02-11T05:24:50.153Z,11.47
2023-02-11T05:27:19.234Z,11.83
2023-02-11T05:29:47.213Z,10.80
2023-02-11T05:32:15.216Z,10.40
2023-02-11T05:34:43.340Z,10.50
2023-02-11T05:37:12.665Z,11.20
2023-02-11T05:39:40.669Z,10.90
2023-02-11T05:42:08.714Z,7.40
2023-02-11T05:44:36.709Z,7.40
2023-02-11T05:47:04.962Z,10.30
2023-02-11T05:49:33.010Z,11.30
2023-02-11T05:52:01.021Z,11.27
2023-02-11T05:54:30.385Z,10.10
2023-02-11T05:56:58.349Z,10.27
2023-02-11T05:59:26.352Z,10.77
2023-02-11T06:01:54.329Z,10.77
2023-02-11T06:04:22.816Z,10.33
2023-02-11T06:06:50.806Z,11.20
2023-02-11T06:09:18.771Z,9.30
2023-02-11T06:11:48.142Z,10.20
2023-02-11T06:14:16.117Z,10.40
2023-02-11T06:16:44.135Z,10.13
2023-02-11T06:19:12.755Z,9.40
2023-02-11T06:21:44.256Z,10.37
2023-02-11T06:24:12.559Z,10.50
2023-02-11T06:26:40.526Z,9.13
2023-02-11T06:29:09.864Z,9.77
2023-02-11T06:31:38.871Z,9.40
2023-02-11T06:34:06.998Z,10.07
2023-02-11T06:36:35.214Z,11.23
2023-02-11T06:39:03.485Z,11.17
2023-02-11T06:41:31.490Z,10.03
2023-02-11T06:43:59.690Z,10.87
2023-02-11T06:46:29.142Z,10.70
2023-02-11T06:48:57.177Z,10.00
2023-02-11T06:51:25.353Z,9.80
2023-02-11T06:53:53.452Z,9.97
2023-02-11T06:56:23.244Z,10.23
2023-02-11T06:58:55.407Z,9.47
2023-02-11T07:01:24.140Z,9.40
2023-02-11T07:03:54.695Z,9.07
2023-02-11T07:06:27.229Z,11.07
2023-02-11T07:08:55.659Z,9.63
2023-02-11T07:11:25.542Z,10.00
2023-02-11T07:13:54.641Z,9.70
2023-02-11T07:16:23.476Z,10.80
2023-02-11T07:18:52.842Z,8.60
2023-02-11T07:21:24.310Z,9.23
2023-02-11T07:23:52.560Z,9.40
2023-02-11T07:26:23.186Z,9.53
2023-02-11T07:28:51.385Z,9.03
2023-02-11T07:31:21.789Z,9.07
2023-02-11T07:33:50.379Z,9.77
2023-02-11T07:36:19.995Z,9.03
2023-02-11T07:38:48.625Z,9.33
2023-02-11T07:41:17.882Z,8.70
2023-02-11T07:43:46.463Z,9.20
2023-02-11T07:46:16.092Z,10.10
2023-02-11T07:48:44.133Z,9.50
2023-02-11T07:51:15.296Z,9.80
2023-02-11T07:53:45.092Z,9.20
2023-02-11T07:56:14.613Z,9.53
2023-02-11T07:58:43.236Z,9.13
2023-02-11T08:01:13.552Z,8.90
2023-02-11T08:03:42.767Z,9.83
2023-02-11T08:06:12.879Z,9.47
2023-02-11T08:08:41.129Z,9.37
2023-02-11T08:11:12.181Z,10.53
2023-02-11T08:13:40.784Z,9.97
2023-02-11T08:16:09.852Z,8.93
2023-02-11T08:18:37.913Z,9.13
2023-02-11T08:21:07.068Z,9.13
2023-02-11T08:23:36.667Z,8.77
2023-02-11T08:26:05.252Z,9.33
2023-02-11T08:28:36.985Z,10.40
2023-02-11T08:31:07.175Z,9.90
2023-02-11T08:33:35.457Z,9.70
2023-02-11T08:36:08.621Z,10.27
2023-02-11T08:38:36.600Z,9.20
2023-02-11T08:41:05.070Z,9.63
2023-02-11T08:43:34.411Z,9.30
2023-02-11T08:46:02.656Z,8.80
2023-02-11T08:48:31.219Z,9.60
2023-02-11T08:50:59.251Z,9.73
2023-02-11T08:53:27.595Z,9.27
2023-02-11T08:55:56.654Z,9.17
2023-02-11T08:58:24.644Z,9.27
2023-02-11T09:00:54.393Z,8.47
2023-02-11T09:03:22.571Z,9.20
2023-02-11T09:05:53.253Z,10.17
2023-02-11T09:08:21.901Z,9.70
2023-02-11T09:10:50.212Z,10.03
2023-02-11T09:13:18.394Z,10.10
2023-02-11T09:15:47.541Z,10.27
2023-02-11T09:18:16.944Z,10.07
2023-02-11T09:20:44.914Z,9.40
2023-02-11T09:23:12.936Z,9.87
2023-02-11T09:25:41.412Z,9.70
2023-02-11T09:28:09.819Z,9.80
2023-02-11T09:30:38.736Z,9.40
2023-02-11T09:33:06.833Z,9.93
2023-02-11T09:35:36.212Z,10.17
2023-02-11T09:38:04.176Z,10.13
2023-02-11T09:40:32.219Z,9.00
2023-02-11T09:43:08.962Z,8.93
2023-02-11T09:45:37.195Z,9.60
2023-02-11T09:48:11.441Z,9.40
2023-02-11T09:50:44.463Z,8.70
2023-02-11T09:53:18.989Z,8.33
2023-02-11T09:55:49.343Z,9.57
2023-02-11T09:58:27.337Z,9.77
2023-02-11T10:01:06.092Z,9.13
2023-02-11T10:03:48.212Z,9.03
2023-02-11T10:06:39.601Z,8.90
2023-02-11T10:09:22.551Z,9.77
2023-02-11T10:11:57.763Z,9.20
2023-02-11T10:14:47.933Z,8.50
2023-02-11T10:17:24.861Z,9.20
2023-02-11T10:20:05.376Z,8.87
2023-02-11T10:22:39.101Z,9.17
2023-02-11T10:25:22.534Z,9.10
2023-02-11T10:27:51.433Z,9.13
2023-02-11T10:30:27.317Z,9.13
2023-02-11T10:33:00.720Z,8.80
2023-02-11T10:35:28.929Z,8.93
2023-02-11T10:37:58.279Z,8.73
2023-02-11T10:40:28.316Z,7.70
2023-02-11T10:42:59.166Z,7.17
2023-02-11T10:45:33.196Z,7.20
2023-02-11T10:48:01.743Z,8.07
2023-02-11T10:50:33.441Z,7.60
2023-02-11T10:53:19.755Z,7.50
2023-02-11T10:55:53.470Z,7.17
2023-02-11T10:58:27.491Z,7.30
2023-02-11T11:00:57.670Z,6.57
2023-02-11T11:03:27.333Z,6.63
2023-02-11T11:05:58.833Z,6.97
2023-02-11T11:08:41.107Z,6.67
2023-02-11T11:11:11.279Z,7.20
2023-02-11T11:13:40.449Z,6.87
2023-02-11T11:16:16.277Z,5.97
2023-02-11T11:18:46.156Z,6.47
2023-02-11T11:21:17.017Z,5.97
2023-02-11T11:23:52.619Z,6.50
2023-02-11T11:26:21.248Z,6.17
2023-02-11T11:28:58.806Z,6.17
2023-02-11T11:31:31.064Z,5.70
2023-02-11T11:34:01.120Z,4.50
2023-02-11T11:36:36.651Z,6.00
2023-02-11T11:39:20.472Z,5.50
2023-02-11T11:41:54.021Z,5.37
2023-02-11T11:44:26.827Z,4.70
2023-02-11T11:47:18.338Z,4.83
2023-02-11T11:49:51.686Z,4.43
2023-02-11T11:52:28.685Z,5.23
2023-02-11T11:55:07.845Z,4.40
2023-02-11T11:57:38.567Z,4.33
2023-02-11T12:00:15.606Z,4.73
2023-02-11T12:03:15.967Z,4.53
2023-02-11T12:05:52.071Z,3.90
2023-02-11T12:08:32.293Z,4.13
2023-02-11T12:11:11.052Z,4.00
2023-02-11T12:14:02.020Z,4.17
2023-02-11T12:16:39.349Z,4.17
2023-02-11T12:19:24.509Z,4.03
2023-02-11T12:22:01.269Z,4.13
2023-02-11T12:24:50.378Z,3.60
2023-02-11T12:27:39.663Z,3.80
2023-02-11T12:30:21.532Z,3.27
2023-02-11T12:33:00.236Z,3.60
2023-02-11T12:35:38.460Z,3.30
2023-02-11T12:38:25.571Z,3.63
2023-02-11T12:41:02.910Z,3.53
2023-02-11T12:43:36.969Z,3.73
2023-02-11T12:46:32.047Z,3.20
2023-02-11T12:49:29.891Z,2.70
2023-02-11T12:52:13.515Z,2.70
2023-02-11T12:54:47.292Z,3.00
2023-02-11T12:57:22.360Z,3.20
2023-02-11T12:59:59.318Z,3.37
2023-02-11T13:02:40.199Z,2.73
2023-02-11T13:05:20.742Z,3.20
2023-02-11T13:07:50.795Z,3.17
2023-02-11T13:10:27.969Z,2.97
2023-02-11T13:13:15.160Z,2.60
2023-02-11T13:15:48.694Z,3.07
2023-02-11T13:18:31.211Z,2.80
2023-02-11T13:21:12.354Z,2.50
2023-02-11T13:23:48.162Z,2.70
2023-02-11T13:26:21.962Z,3.00
2023-02-11T13:28:54.329Z,2.70
2023-02-11T13:31:27.121Z,2.40
2023-02-11T13:33:55.392Z,2.30
2023-02-11T13:36:26.581Z,2.73
2023-02-11T13:39:00.987Z,2.50
2023-02-11T13:41:32.615Z,2.50
2023-02-11T13:44:07.574Z,2.43
2023-02-11T13:46:55.652Z,2.50
2023-02-11T13:49:26.368Z,2.00
2023-02-11T13:51:55.610Z,2.77
2023-02-11T13:54:36.606Z,2.77
2023-02-11T13:57:26.378Z,2.73
2023-02-11T13:59:56.610Z,2.13
2023-02-11T14:02:52.501Z,2.40
2023-02-11T14:05:41.923Z,2.40
2023-02-11T14:08:37.653Z,2.73
2023-02-11T14:11:12.353Z,2.90
2023-02-11T14:14:15.860Z,2.70
2023-02-11T14:17:22.469Z,2.40
2023-02-11T14:19:52.056Z,3.00
2023-02-11T14:22:26.719Z,2.43
2023-02-11T14:24:57.469Z,2.53
2023-02-11T14:27:35.550Z,2.40
2023-02-11T14:30:27.626Z,2.63
2023-02-11T14:33:24.234Z,2.60
2023-02-11T14:36:05.554Z,2.70
2023-02-11T14:38:46.349Z,2.83
2023-02-11T14:41:21.736Z,2.87
2023-02-11T14:43:53.038Z,2.90
2023-02-11T14:46:23.045Z,2.53
2023-02-11T14:48:54.558Z,3.43
2023-02-11T14:51:27.014Z,2.40
2023-02-11T14:54:00.637Z,2.60
2023-02-11T14:56:31.470Z,2.70
2023-02-11T14:58:59.892Z,2.50
2023-02-11T15:01:32.010Z,2.87
2023-02-11T15:04:01.341Z,2.70
2023-02-11T15:06:33.968Z,2.57
2023-02-11T15:09:04.946Z,2.07
2023-02-11T15:11:36.031Z,3.10
2023-02-11T15:14:10.675Z,2.63
2023-02-11T15:16:43.113Z,2.70
2023-02-11T15:19:25.674Z,3.00
2023-02-11T15:21:56.810Z,2.90
2023-02-11T15:24:27.594Z,2.73
2023-02-11T15:27:03.942Z,2.80
2023-02-11T15:29:37.817Z,3.10
2023-02-11T15:32:07.812Z,2.70
2023-02-11T15:34:36.159Z,2.87
2023-02-11T15:37:05.992Z,2.80
2023-02-11T15:39:37.770Z,3.00
2023-02-11T15:42:28.109Z,2.40
2023-02-11T15:45:25.931Z,2.90
2023-02-11T15:47:55.407Z,2.90
2023-02-11T15:50:25.605Z,2.67
2023-02-11T15:52:56.059Z,2.33
2023-02-11T15:55:26.044Z,2.70
2023-02-11T15:57:57.193Z,3.10
2023-02-11T16:00:30.206Z,3.13
2023-02-11T16:02:58.207Z,2.77
2023-02-11T16:05:29.443Z,2.97
2023-02-11T16:07:59.418Z,2.73
2023-02-11T16:10:30.162Z,2.50
2023-02-11T16:13:04.903Z,3.27
2023-02-11T16:15:45.927Z,2.97
2023-02-11T16:18:37.313Z,3.00
2023-02-11T16:21:08.488Z,2.90
2023-02-11T16:23:42.042Z,3.23
2023-02-11T16:26:14.029Z,2.40
2023-02-11T16:28:42.579Z,3.20
2023-02-11T16:31:10.763Z,3.50
2023-02-11T16:33:38.863Z,3.13
2023-02-11T16:36:13.414Z,3.03
2023-02-11T16:38:42.764Z,3.20
2023-02-11T16:41:11.899Z,3.50
2023-02-11T16:43:40.430Z,2.90
2023-02-11T16:46:09.337Z,3.50
2023-02-11T16:48:38.689Z,3.43
2023-02-11T16:51:09.253Z,3.50
2023-02-11T16:53:37.329Z,3.40
2023-02-11T16:56:07.144Z,3.30
2023-02-11T16:58:35.132Z,3.23
2023-02-11T17:01:03.196Z,3.70
2023-02-11T17:03:35.621Z,3.13
2023-02-11T17:06:05.709Z,3.77
2023-02-11T17:08:33.744Z,3.20
2023-02-11T17:11:01.717Z,2.97
2023-02-11T17:13:31.136Z,3.20
2023-02-11T17:15:59.251Z,3.03
2023-02-11T17:18:27.273Z,3.67
2023-02-11T17:20:55.269Z,3.20
2023-02-11T17:23:23.259Z,3.40
2023-02-11T17:25:56.965Z,3.30
2023-02-11T17:28:24.950Z,3.50
2023-02-11T17:30:54.381Z,3.80
2023-02-11T17:33:22.429Z,3.60
2023-02-11T17:35:50.778Z,3.33
2023-02-11T17:38:19.023Z,3.10
2023-02-11T17:40:47.050Z,3.77
2023-02-11T17:43:15.819Z,2.67
2023-02-11T17:45:44.016Z,3.37
2023-02-11T17:48:13.407Z,4.10
2023-02-11T17:50:41.367Z,3.60
2023-02-11T17:53:09.437Z,3.67
2023-02-11T17:55:38.487Z,3.10
2023-02-11T17:58:06.640Z,4.63
2023-02-11T18:00:34.712Z,3.70
2023-02-11T18:03:03.781Z,3.60
2023-02-11T18:05:36.830Z,3.90
2023-02-11T18:08:06.031Z,3.50
2023-02-11T18:10:34.659Z,3.97
2023-02-11T18:13:02.862Z,3.80
2023-02-11T18:15:30.842Z,3.93
2023-02-11T18:17:58.804Z,4.03
2023-02-11T18:20:26.767Z,3.73
2023-02-11T18:22:56.069Z,3.80
2023-02-11T18:25:24.090Z,4.47
2023-02-11T18:27:52.043Z,4.17
2023-02-11T18:30:22.124Z,4.50
2023-02-11T18:32:54.674Z,4.63
2023-02-11T18:35:24.272Z,4.10
2023-02-11T18:37:53.389Z,3.77
2023-02-11T18:40:22.979Z,4.23
2023-02-11T18:42:50.971Z,4.57
2023-02-11T18:45:19.104Z,4.37
2023-02-11T18:47:47.051Z,4.90
2023-02-11T18:50:16.078Z,4.53
2023-02-11T18:52:44.081Z,4.40
2023-02-11T18:55:12.104Z,4.43
2023-02-11T18:57:42.970Z,4.33
2023-02-11T19:00:12.624Z,4.80
2023-02-11T19:02:40.811Z,4.63
2023-02-11T19:05:09.151Z,4.80
2023-02-11T19:07:37.200Z,4.87
2023-02-11T19:10:06.043Z,4.87
2023-02-11T19:12:34.069Z,4.83
2023-02-11T19:15:03.356Z,4.87
2023-02-11T19:17:31.387Z,5.10
2023-02-11T19:19:59.831Z,5.20
2023-02-11T19:22:27.835Z,4.90
2023-02-11T19:24:55.842Z,5.97
2023-02-11T19:27:23.862Z,5.73
2023-02-11T19:29:52.422Z,5.00
2023-02-11T19:32:21.867Z,5.20
2023-02-11T19:34:50.456Z,5.30
2023-02-11T19:37:20.435Z,5.53
2023-02-11T19:39:48.582Z,4.40
2023-02-11T19:42:16.620Z,5.10
2023-02-11T19:44:44.590Z,4.80
2023-02-11T19:47:13.463Z,5.20
2023-02-11T19:49:42.837Z,5.70
2023-02-11T19:52:10.803Z,5.00
2023-02-11T19:54:39.172Z,5.13
2023-02-11T19:57:07.177Z,4.73
2023-02-11T19:59:35.139Z,5.40
2023-02-11T20:02:03.120Z,5.67
2023-02-11T20:04:32.162Z,5.63
2023-02-11T20:07:01.549Z,4.80
2023-02-11T20:09:31.128Z,5.47
2023-02-11T20:11:59.201Z,4.80
2023-02-11T20:14:28.123Z,5.77
2023-02-11T20:16:56.296Z,5.40
2023-02-11T20:19:24.381Z,5.67
2023-02-11T20:21:55.747Z,5.50
2023-02-11T20:24:25.872Z,5.87
2023-02-11T20:26:55.938Z,5.27
2023-02-11T20:29:25.133Z,5.63
2023-02-11T20:31:53.851Z,5.83
2023-02-11T20:34:22.268Z,5.57
2023-02-11T20:36:52.810Z,6.50
2023-02-11T20:39:22.743Z,5.50
2023-02-11T20:41:53.333Z,5.93
2023-02-11T20:44:22.605Z,5.50
2023-02-11T20:46:52.094Z,6.07
2023-02-11T20:49:22.244Z,5.63
2023-02-11T20:51:51.238Z,5.93
2023-02-11T20:54:21.343Z,6.20
2023-02-11T20:56:51.554Z,5.97
2023-02-11T20:59:20.931Z,6.13
2023-02-11T21:01:50.962Z,5.83
2023-02-11T21:04:20.956Z,6.00
2023-02-11T21:06:54.287Z,6.80
2023-02-11T21:09:25.118Z,6.70
2023-02-11T21:11:54.814Z,6.83
2023-02-11T21:14:24.632Z,5.73
2023-02-11T21:16:53.422Z,6.03
2023-02-11T21:19:21.497Z,6.47
2023-02-11T21:21:49.615Z,6.90
2023-02-11T21:24:17.778Z,6.70
2023-02-11T21:26:45.885Z,6.50
2023-02-11T21:29:15.225Z,6.10
2023-02-11T21:31:43.334Z,6.90
2023-02-11T21:34:11.412Z,6.87
2023-02-11T21:36:39.426Z,6.63
2023-02-11T21:39:07.425Z,6.40
2023-02-11T21:41:35.907Z,6.43
2023-02-11T21:44:04.029Z,7.43
2023-02-11T21:46:33.618Z,6.73
2023-02-11T21:49:01.655Z,6.60
2023-02-11T21:51:29.751Z,6.43
2023-02-11T21:54:01.064Z,6.97
2023-02-11T21:56:30.863Z,7.70
2023-02-11T21:59:00.466Z,6.50
2023-02-11T22:01:30.338Z,6.90
2023-02-11T22:04:00.226Z,7.07
2023-02-11T22:06:31.004Z,6.83
2023-02-11T22:08:59.929Z,7.20
2023-02-11T22:11:27.908Z,7.67
2023-02-11T22:13:57.835Z,7.30
2023-02-11T22:16:26.953Z,7.80
2023-02-11T22:18:58.344Z,7.13
2023-02-11T22:21:28.006Z,6.80
2023-02-11T22:23:56.666Z,7.43
2023-02-11T22:26:26.335Z,7.80
2023-02-11T22:28:54.933Z,7.50
2023-02-11T22:31:25.219Z,7.70
2023-02-11T22:33:53.540Z,7.10
2023-02-11T22:36:23.791Z,7.33
2023-02-11T22:38:53.860Z,8.40
2023-02-11T22:41:22.641Z,7.47
2023-02-11T22:43:50.830Z,8.60
2023-02-11T22:46:20.643Z,7.37
2023-02-11T22:48:49.437Z,8.20
2023-02-11T22:51:20.397Z,8.60
2023-02-11T22:53:54.478Z,7.93
2023-02-11T22:56:22.924Z,7.57
2023-02-11T22:58:51.711Z,8.63
2023-02-11T23:01:20.420Z,8.43
2023-02-11T23:03:48.792Z,8.17
2023-02-11T23:06:17.439Z,7.57
2023-02-11T23:08:45.959Z,7.97
2023-02-11T23:11:17.902Z,8.20
2023-02-11T23:13:47.255Z,8.10
2023-02-11T23:16:18.603Z,8.03
2023-02-11T23:18:48.110Z,8.60
2023-02-11T23:21:18.134Z,8.10
2023-02-11T23:23:46.533Z,8.47
2023-02-11T23:26:19.169Z,8.63
2023-02-11T23:28:47.641Z,8.40
2023-02-11T23:31:22.559Z,8.70
2023-02-11T23:33:51.145Z,8.80
2023-02-11T23:36:20.434Z,8.17
2023-02-11T23:38:48.728Z,7.90
2023-02-11T23:41:18.752Z,9.37
2023-02-11T23:43:50.670Z,8.07
2023-02-11T23:46:19.175Z,8.13
2023-02-11T23:48:47.202Z,8.83
2023-02-11T23:51:15.513Z,9.60
2023-02-11T23:53:44.837Z,8.23
2023-02-11T23:56:16.281Z,9.37
2023-02-11T23:58:48.210Z,9.43
